PWSweather.com
Personal Weather Stations
Station Observations
BURKEWX
Burke, VA

Burke, VA

Lat: 38.796, Lon: -77.256

Elevation: 308

Station Type: LaCrosse WS2308

High Low Average
Temperature 70.7°F21.5°C 57.7°F14.3°C 64.2°F17.9°C
Dew Point 65.4°F18.6°C 49.1°F9.5°C 58.0°F14.4°C
Winds 7.0 mph 11.3 kmh Calm Calm 2.0 mph SE3.2 kmh SE
Wind Gusts 11.9 mph19.2 kmh -- 5.0 mph8.0 kmh
Humidity 90% 67% 80%
Pressure 29.99 in1015.6 mb 29.76 in1007.8 mb -
Precipitation 0.04 in1.0 mm - -
Hour Temp Dew Point Humidity Winds Wind Gusts Pressure Precip Precip Rate Daily Precip Total
12:04 AM 60.1°F15.6°C 49.1°F9.5°C 67% 1.4 mph S2.3 kmh S 3.4 mph5.5 kmh 29.99 in1015.6 mb 0.00 in0.0 mm 0.00 in/hr0.0 mm/hr 0.00 in0.0 mm
12:09 AM 60.1°F15.6°C 49.5°F9.7°C 68% 2.1 mph ESE3.4 kmh ESE 3.8 mph6.1 kmh 29.99 in1015.6 mb 0.00 in0.0 mm 0.00 in/hr0.0 mm/hr 0.00 in0.0 mm
12:14 AM 60.1°F15.6°C 49.9°F9.9°C 69% 3.3 mph SE5.3 kmh SE 5.4 mph8.7 kmh 29.99 in1015.6 mb 0.00 in0.0 mm 0.00 in/hr0.0 mm/hr 0.00 in0.0 mm
12:19 AM 60.1°F15.6°C 49.9°F9.9°C 69% 2.6 mph E4.2 kmh E 5.8 mph9.3 kmh 29.99 in1015.6 mb 0.00 in0.0 mm 0.00 in/hr0.0 mm/hr 0.00 in0.0 mm
12:24 AM 60.1°F15.6°C 50.4°F10.2°C 70% 2.3 mph SE3.7 kmh SE 8.7 mph14.0 kmh 29.99 in1015.6 mb 0.00 in0.0 mm 0.00 in/hr0.0 mm/hr 0.00 in0.0 mm
12:29 AM 60.1°F15.6°C 50.4°F10.2°C 70% Calm Calm 8.7 mph14.0 kmh 29.98 in1015.2 mb 0.00 in0.0 mm 0.00 in/hr0.0 mm/hr 0.00 in0.0 mm
12:34 AM 59.9°F15.5°C 50.2°F10.1°C 71% 2.4 mph SE3.9 kmh SE 4.7 mph7.6 kmh 29.98 in1015.2 mb 0.00 in0.0 mm 0.00 in/hr0.0 mm/hr 0.00 in0.0 mm
12:39 AM 59.9°F15.5°C 50.5°F10.3°C 71% 1.6 mph ESE2.6 kmh ESE 4.7 mph7.6 kmh 29.98 in1015.2 mb 0.00 in0.0 mm 0.00 in/hr0.0 mm/hr 0.00 in0.0 mm
12:44 AM 59.9°F15.5°C 50.9°F10.5°C 72% 2.0 mph SSW3.2 kmh SSW 4.0 mph6.4 kmh 29.98 in1015.2 mb 0.00 in0.0 mm 0.00 in/hr0.0 mm/hr 0.00 in0.0 mm
12:49 AM 59.7°F15.4°C 50.7°F10.4°C 72% Calm Calm 2.5 mph4.0 kmh 29.98 in1015.2 mb 0.00 in0.0 mm 0.00 in/hr0.0 mm/hr 0.00 in0.0 mm
12:54 AM 59.9°F15.5°C 51.3°F10.7°C 73% 3.0 mph SE4.8 kmh SE 6.0 mph9.7 kmh 29.98 in1015.2 mb 0.00 in0.0 mm 0.00 in/hr0.0 mm/hr 0.00 in0.0 mm
12:59 AM 59.9°F15.5°C 51.3°F10.7°C 73% 2.4 mph SE3.9 kmh SE 6.0 mph9.7 kmh 29.97 in1014.9 mb 0.00 in0.0 mm 0.00 in/hr0.0 mm/hr 0.00 in0.0 mm
01:04 AM 59.9°F15.5°C 51.3°F10.7°C 73% 2.5 mph SE4.0 kmh SE 4.0 mph6.4 kmh 29.98 in1015.2 mb 0.00 in0.0 mm 0.00 in/hr0.0 mm/hr 0.00 in0.0 mm
01:09 AM 59.9°F15.5°C 51.3°F10.7°C 73% Calm Calm 3.6 mph5.8 kmh 29.98 in1015.2 mb 0.00 in0.0 mm 0.00 in/hr0.0 mm/hr 0.00 in0.0 mm
01:14 AM 59.9°F15.5°C 51.3°F10.7°C 73% 1.9 mph SE3.1 kmh SE 3.6 mph5.8 kmh 29.98 in1015.2 mb 0.00 in0.0 mm 0.00 in/hr0.0 mm/hr 0.00 in0.0 mm
01:19 AM 59.9°F15.5°C 51.3°F10.7°C 73% 2.1 mph SE3.4 kmh SE 4.0 mph6.4 kmh 29.97 in1014.9 mb 0.00 in0.0 mm 0.00 in/hr0.0 mm/hr 0.00 in0.0 mm
01:24 AM 59.9°F15.5°C 51.3°F10.7°C 73% 1.9 mph SSE3.1 kmh SSE 4.0 mph6.4 kmh 29.97 in1014.9 mb 0.00 in0.0 mm 0.00 in/hr0.0 mm/hr 0.00 in0.0 mm
01:29 AM 59.7°F15.4°C 51.4°F10.8°C 74% 2.0 mph SE3.2 kmh SE 3.1 mph5.0 kmh 29.97 in1014.9 mb 0.00 in0.0 mm 0.00 in/hr0.0 mm/hr 0.00 in0.0 mm
01:34 AM 59.7°F15.4°C 51.4°F10.8°C 74% 2.5 mph ESE4.0 kmh ESE 4.3 mph6.9 kmh 29.97 in1014.9 mb 0.00 in0.0 mm 0.00 in/hr0.0 mm/hr 0.00 in0.0 mm
01:39 AM 59.7°F15.4°C 51.4°F10.8°C 74% Calm Calm 4.3 mph6.9 kmh 29.97 in1014.9 mb 0.00 in0.0 mm 0.00 in/hr0.0 mm/hr 0.00 in0.0 mm
01:44 AM 59.7°F15.4°C 51.4°F10.8°C 74% 2.2 mph S3.5 kmh S 3.6 mph5.8 kmh 29.96 in1014.6 mb 0.00 in0.0 mm 0.00 in/hr0.0 mm/hr 0.00 in0.0 mm
01:49 AM 59.5°F15.3°C 51.6°F10.9°C 75% 1.3 mph SE2.1 kmh SE 3.6 mph5.8 kmh 29.96 in1014.6 mb 0.00 in0.0 mm 0.00 in/hr0.0 mm/hr 0.00 in0.0 mm
01:54 AM 59.5°F15.3°C 51.6°F10.9°C 75% 1.9 mph SE3.1 kmh SE 2.9 mph4.7 kmh 29.96 in1014.6 mb 0.00 in0.0 mm 0.00 in/hr0.0 mm/hr 0.00 in0.0 mm
01:59 AM 59.5°F15.3°C 51.6°F10.9°C 75% 1.6 mph SE2.6 kmh SE 3.1 mph5.0 kmh 29.96 in1014.6 mb 0.00 in0.0 mm 0.00 in/hr0.0 mm/hr 0.00 in0.0 mm
02:04 AM 59.5°F15.3°C 51.6°F10.9°C 75% 2.0 mph SE3.2 kmh SE 3.6 mph5.8 kmh 29.96 in1014.6 mb 0.00 in0.0 mm 0.00 in/hr0.0 mm/hr 0.00 in0.0 mm
02:10 AM 59.4°F15.2°C 51.4°F10.8°C 75% 2.2 mph ESE3.5 kmh ESE 3.6 mph5.8 kmh 29.96 in1014.6 mb 0.00 in0.0 mm 0.00 in/hr0.0 mm/hr 0.00 in0.0 mm
02:14 AM 59.4°F15.2°C 51.4°F10.8°C 75% 3.9 mph SE6.3 kmh SE 8.3 mph13.4 kmh 29.95 in1014.2 mb 0.00 in0.0 mm 0.00 in/hr0.0 mm/hr 0.00 in0.0 mm
02:20 AM 59.2°F15.1°C 51.6°F10.9°C 76% 1.8 mph SE2.9 kmh SE 8.3 mph13.4 kmh 29.95 in1014.2 mb 0.00 in0.0 mm 0.00 in/hr0.0 mm/hr 0.00 in0.0 mm
02:25 AM 59.2°F15.1°C 51.6°F10.9°C 76% 2.3 mph SE3.7 kmh SE 4.5 mph7.2 kmh 29.96 in1014.6 mb 0.00 in0.0 mm 0.00 in/hr0.0 mm/hr 0.00 in0.0 mm
02:30 AM 59.0°F15.0°C 51.4°F10.8°C 76% 3.4 mph SE5.5 kmh SE 4.5 mph7.2 kmh 29.96 in1014.6 mb 0.00 in0.0 mm 0.00 in/hr0.0 mm/hr 0.00 in0.0 mm
02:35 AM 58.8°F14.9°C 51.3°F10.7°C 76% Calm Calm 3.6 mph5.8 kmh 29.95 in1014.2 mb 0.00 in0.0 mm 0.00 in/hr0.0 mm/hr 0.00 in0.0 mm
02:40 AM 58.8°F14.9°C 51.6°F10.9°C 77% 3.0 mph ESE4.8 kmh ESE 5.1 mph8.2 kmh 29.96 in1014.6 mb 0.00 in0.0 mm 0.00 in/hr0.0 mm/hr 0.00 in0.0 mm
02:45 AM 58.8°F14.9°C 51.6°F10.9°C 77% Calm Calm 5.4 mph8.7 kmh 29.95 in1014.2 mb 0.00 in0.0 mm 0.00 in/hr0.0 mm/hr 0.00 in0.0 mm
02:50 AM 58.8°F14.9°C 51.6°F10.9°C 77% 2.2 mph SE3.5 kmh SE 5.4 mph8.7 kmh 29.96 in1014.6 mb 0.00 in0.0 mm 0.00 in/hr0.0 mm/hr 0.00 in0.0 mm
02:55 AM 58.8°F14.9°C 51.6°F10.9°C 77% 2.0 mph S3.2 kmh S 4.0 mph6.4 kmh 29.96 in1014.6 mb 0.00 in0.0 mm 0.00 in/hr0.0 mm/hr 0.00 in0.0 mm
02:59 AM 58.8°F14.9°C 52.0°F11.1°C 78% 1.1 mph SE1.8 kmh SE 3.8 mph6.1 kmh 29.96 in1014.6 mb 0.00 in0.0 mm 0.00 in/hr0.0 mm/hr 0.00 in0.0 mm
03:05 AM 58.8°F14.9°C 52.0°F11.1°C 78% 1.3 mph SSE2.1 kmh SSE 3.6 mph5.8 kmh 29.96 in1014.6 mb 0.00 in0.0 mm 0.00 in/hr0.0 mm/hr 0.00 in0.0 mm
03:09 AM 58.8°F14.9°C 52.0°F11.1°C 78% 1.7 mph SE2.7 kmh SE 4.5 mph7.2 kmh 29.96 in1014.6 mb 0.00 in0.0 mm 0.00 in/hr0.0 mm/hr 0.00 in0.0 mm
03:15 AM 58.8°F14.9°C 52.3°F11.3°C 79% 2.8 mph SE4.5 kmh SE 4.5 mph7.2 kmh 29.96 in1014.6 mb 0.00 in0.0 mm 0.00 in/hr0.0 mm/hr 0.00 in0.0 mm
03:20 AM 58.8°F14.9°C 52.3°F11.3°C 79% Calm Calm 3.8 mph6.1 kmh 29.95 in1014.2 mb 0.00 in0.0 mm 0.00 in/hr0.0 mm/hr 0.00 in0.0 mm
03:25 AM 58.8°F14.9°C 52.3°F11.3°C 79% 4.6 mph ESE7.4 kmh ESE 5.4 mph8.7 kmh 29.95 in1014.2 mb 0.00 in0.0 mm 0.00 in/hr0.0 mm/hr 0.00 in0.0 mm
03:30 AM 58.8°F14.9°C 52.3°F11.3°C 79% 3.8 mph E6.1 kmh E 5.4 mph8.7 kmh 29.95 in1014.2 mb 0.00 in0.0 mm 0.00 in/hr0.0 mm/hr 0.00 in0.0 mm
03:35 AM 58.8°F14.9°C 52.3°F11.3°C 79% Calm Calm 4.0 mph6.4 kmh 29.95 in1014.2 mb 0.00 in0.0 mm 0.00 in/hr0.0 mm/hr 0.00 in0.0 mm
03:40 AM 58.8°F14.9°C 52.7°F11.5°C 80% 1.7 mph ESE2.7 kmh ESE 4.5 mph7.2 kmh 29.95 in1014.2 mb 0.00 in0.0 mm 0.00 in/hr0.0 mm/hr 0.00 in0.0 mm
03:45 AM 58.8°F14.9°C 52.7°F11.5°C 80% 2.0 mph SE3.2 kmh SE 4.5 mph7.2 kmh 29.94 in1013.9 mb 0.00 in0.0 mm 0.00 in/hr0.0 mm/hr 0.00 in0.0 mm
03:49 AM 58.8°F14.9°C 52.7°F11.5°C 81% 3.2 mph SE5.1 kmh SE 4.7 mph7.6 kmh 29.94 in1013.9 mb 0.00 in0.0 mm 0.00 in/hr0.0 mm/hr 0.00 in0.0 mm
03:55 AM 58.6°F14.8°C 52.8°F11.6°C 81% 2.7 mph SE4.3 kmh SE 4.7 mph7.6 kmh 29.94 in1013.9 mb 0.00 in0.0 mm 0.00 in/hr0.0 mm/hr 0.00 in0.0 mm
04:00 AM 58.8°F14.9°C 53.0°F11.7°C 81% 2.2 mph SE3.5 kmh SE 3.6 mph5.8 kmh 29.94 in1013.9 mb 0.00 in0.0 mm 0.00 in/hr0.0 mm/hr 0.00 in0.0 mm
04:05 AM 58.8°F14.9°C 53.0°F11.7°C 81% 3.5 mph SE5.6 kmh SE 4.5 mph7.2 kmh 29.94 in1013.9 mb 0.00 in0.0 mm 0.00 in/hr0.0 mm/hr 0.00 in0.0 mm
04:10 AM 58.6°F14.8°C 53.2°F11.8°C 82% 2.6 mph SE4.2 kmh SE 6.9 mph11.1 kmh 29.94 in1013.9 mb 0.00 in0.0 mm 0.00 in/hr0.0 mm/hr 0.00 in0.0 mm
04:15 AM 58.6°F14.8°C 53.2°F11.8°C 82% 2.1 mph SE3.4 kmh SE 6.9 mph11.1 kmh 29.94 in1013.9 mb 0.00 in0.0 mm 0.00 in/hr0.0 mm/hr 0.00 in0.0 mm
04:20 AM 58.5°F14.7°C 53.0°F11.7°C 82% 1.8 mph SE2.9 kmh SE 2.9 mph4.7 kmh 29.93 in1013.5 mb 0.00 in0.0 mm 0.00 in/hr0.0 mm/hr 0.00 in0.0 mm
04:25 AM 58.3°F14.6°C 53.1°F11.7°C 83% 2.3 mph S3.7 kmh S 3.4 mph5.5 kmh 29.93 in1013.5 mb 0.00 in0.0 mm 0.00 in/hr0.0 mm/hr 0.00 in0.0 mm
04:30 AM 58.3°F14.6°C 53.1°F11.7°C 83% 2.1 mph SSW3.4 kmh SSW 3.4 mph5.5 kmh 29.93 in1013.5 mb 0.00 in0.0 mm 0.00 in/hr0.0 mm/hr 0.00 in0.0 mm
04:35 AM 58.1°F14.5°C 53.0°F11.7°C 83% 2.2 mph SE3.5 kmh SE 4.5 mph7.2 kmh 29.93 in1013.5 mb 0.00 in0.0 mm 0.00 in/hr0.0 mm/hr 0.00 in0.0 mm
04:40 AM 58.1°F14.5°C 53.0°F11.7°C 83% 2.6 mph SE4.2 kmh SE 4.5 mph7.2 kmh 29.93 in1013.5 mb 0.00 in0.0 mm 0.00 in/hr0.0 mm/hr 0.00 in0.0 mm
04:45 AM 57.9°F14.4°C 53.1°F11.7°C 84% 2.0 mph SSE3.2 kmh SSE 4.5 mph7.2 kmh 29.93 in1013.5 mb 0.00 in0.0 mm 0.00 in/hr0.0 mm/hr 0.00 in0.0 mm
04:49 AM 57.9°F14.4°C 53.1°F11.7°C 84% 2.7 mph ESE4.3 kmh ESE 3.8 mph6.1 kmh 29.94 in1013.9 mb 0.00 in0.0 mm 0.00 in/hr0.0 mm/hr 0.00 in0.0 mm
04:55 AM 57.7°F14.3°C 53.1°F11.7°C 84% 2.1 mph SE3.4 kmh SE 3.8 mph6.1 kmh 29.94 in1013.9 mb 0.00 in0.0 mm 0.00 in/hr0.0 mm/hr 0.00 in0.0 mm
05:00 AM 57.7°F14.3°C 53.2°F11.8°C 85% 2.9 mph SE4.7 kmh SE 3.8 mph6.1 kmh 29.94 in1013.9 mb 0.00 in0.0 mm 0.00 in/hr0.0 mm/hr 0.00 in0.0 mm
05:05 AM 57.7°F14.3°C 53.2°F11.8°C 85% Calm Calm 2.9 mph4.7 kmh 29.94 in1013.9 mb 0.00 in0.0 mm 0.00 in/hr0.0 mm/hr 0.00 in0.0 mm
05:10 AM 57.7°F14.3°C 53.2°F11.8°C 85% 2.5 mph SSE4.0 kmh SSE 3.6 mph5.8 kmh 29.94 in1013.9 mb 0.00 in0.0 mm 0.00 in/hr0.0 mm/hr 0.00 in0.0 mm
05:15 AM 57.9°F14.4°C 53.4°F11.9°C 85% 1.5 mph SE2.4 kmh SE 5.1 mph8.2 kmh 29.94 in1013.9 mb 0.00 in0.0 mm 0.00 in/hr0.0 mm/hr 0.00 in0.0 mm
05:20 AM 57.9°F14.4°C 53.4°F11.9°C 85% 2.0 mph SE3.2 kmh SE 5.1 mph8.2 kmh 29.94 in1013.9 mb 0.00 in0.0 mm 0.00 in/hr0.0 mm/hr 0.00 in0.0 mm
05:25 AM 57.9°F14.4°C 53.4°F11.9°C 85% Calm Calm 2.0 mph3.2 kmh 29.94 in1013.9 mb 0.00 in0.0 mm 0.00 in/hr0.0 mm/hr 0.00 in0.0 mm
05:30 AM 57.9°F14.4°C 53.7°F12.1°C 86% 2.3 mph SE3.7 kmh SE 2.9 mph4.7 kmh 29.94 in1013.9 mb 0.00 in0.0 mm 0.00 in/hr0.0 mm/hr 0.00 in0.0 mm
05:35 AM 58.1°F14.5°C 53.9°F12.2°C 86% 2.6 mph SSE4.2 kmh SSE 3.4 mph5.5 kmh 29.94 in1013.9 mb 0.00 in0.0 mm 0.00 in/hr0.0 mm/hr 0.00 in0.0 mm
05:40 AM 58.1°F14.5°C 53.9°F12.2°C 86% 1.9 mph SSE3.1 kmh SSE 3.4 mph5.5 kmh 29.93 in1013.5 mb 0.00 in0.0 mm 0.00 in/hr0.0 mm/hr 0.00 in0.0 mm
05:45 AM 58.1°F14.5°C 53.9°F12.2°C 86% 2.0 mph SE3.2 kmh SE 6.9 mph11.1 kmh 29.93 in1013.5 mb 0.00 in0.0 mm 0.00 in/hr0.0 mm/hr 0.00 in0.0 mm
05:50 AM 58.3°F14.6°C 54.1°F12.3°C 86% 2.6 mph SE4.2 kmh SE 6.9 mph11.1 kmh 29.93 in1013.5 mb 0.00 in0.0 mm 0.00 in/hr0.0 mm/hr 0.00 in0.0 mm
05:55 AM 58.5°F14.7°C 54.3°F12.4°C 86% 2.6 mph SE4.2 kmh SE 4.0 mph6.4 kmh 29.94 in1013.9 mb 0.00 in0.0 mm 0.00 in/hr0.0 mm/hr 0.00 in0.0 mm
06:00 AM 58.6°F14.8°C 54.5°F12.5°C 86% 2.1 mph SSW3.4 kmh SSW 4.3 mph6.9 kmh 29.93 in1013.5 mb 0.00 in0.0 mm 0.00 in/hr0.0 mm/hr 0.00 in0.0 mm
06:05 AM 58.6°F14.8°C 54.5°F12.5°C 86% 3.1 mph SE5.0 kmh SE 4.7 mph7.6 kmh 29.94 in1013.9 mb 0.00 in0.0 mm 0.00 in/hr0.0 mm/hr 0.00 in0.0 mm
06:10 AM 58.8°F14.9°C 54.6°F12.6°C 86% 7.0 mph SE11.3 kmh SE 11.9 mph19.2 kmh 29.93 in1013.5 mb 0.00 in0.0 mm 0.00 in/hr0.0 mm/hr 0.00 in0.0 mm
06:15 AM 58.8°F14.9°C 54.3°F12.4°C 85% 2.9 mph SE4.7 kmh SE 11.9 mph19.2 kmh 29.94 in1013.9 mb 0.00 in0.0 mm 0.00 in/hr0.0 mm/hr 0.00 in0.0 mm
06:20 AM 58.8°F14.9°C 54.3°F12.4°C 85% Calm Calm 5.1 mph8.2 kmh 29.94 in1013.9 mb 0.00 in0.0 mm 0.00 in/hr0.0 mm/hr 0.00 in0.0 mm
06:25 AM 58.8°F14.9°C 54.3°F12.4°C 85% 3.2 mph S5.1 kmh S 4.9 mph7.9 kmh 29.94 in1013.9 mb 0.00 in0.0 mm 0.00 in/hr0.0 mm/hr 0.00 in0.0 mm
06:30 AM 58.8°F14.9°C 54.3°F12.4°C 85% 2.6 mph E4.2 kmh E 4.9 mph7.9 kmh 29.93 in1013.5 mb 0.00 in0.0 mm 0.00 in/hr0.0 mm/hr 0.00 in0.0 mm
06:35 AM 58.8°F14.9°C 54.6°F12.6°C 86% 3.0 mph SE4.8 kmh SE 5.8 mph9.3 kmh 29.94 in1013.9 mb 0.00 in0.0 mm 0.00 in/hr0.0 mm/hr 0.00 in0.0 mm
06:40 AM 58.8°F14.9°C 54.6°F12.6°C 86% 3.3 mph SSE5.3 kmh SSE 6.3 mph10.1 kmh 29.94 in1013.9 mb 0.00 in0.0 mm 0.00 in/hr0.0 mm/hr 0.00 in0.0 mm
06:45 AM 59.2°F15.1°C 55.0°F12.8°C 86% 1.9 mph SE3.1 kmh SE 6.3 mph10.1 kmh 29.94 in1013.9 mb 0.00 in0.0 mm 0.00 in/hr0.0 mm/hr 0.00 in0.0 mm
06:50 AM 59.5°F15.3°C 55.4°F13.0°C 86% 3.1 mph SE5.0 kmh SE 5.8 mph9.3 kmh 29.93 in1013.5 mb 0.00 in0.0 mm 0.00 in/hr0.0 mm/hr 0.00 in0.0 mm
06:55 AM 59.5°F15.3°C 55.4°F13.0°C 86% 2.0 mph SE3.2 kmh SE 5.8 mph9.3 kmh 29.92 in1013.2 mb 0.00 in0.0 mm 0.00 in/hr0.0 mm/hr 0.00 in0.0 mm
07:00 AM 59.9°F15.5°C 55.7°F13.2°C 86% 3.3 mph E5.3 kmh E 7.4 mph11.9 kmh 29.93 in1013.5 mb 0.00 in0.0 mm 0.00 in/hr0.0 mm/hr 0.00 in0.0 mm
07:05 AM 60.1°F15.6°C 55.7°F13.2°C 86% 2.1 mph SSE3.4 kmh SSE 7.4 mph11.9 kmh 29.93 in1013.5 mb 0.00 in0.0 mm 0.00 in/hr0.0 mm/hr 0.00 in0.0 mm
07:10 AM 60.3°F15.7°C 56.1°F13.4°C 85% 3.3 mph SSE5.3 kmh SSE 5.4 mph8.7 kmh 29.93 in1013.5 mb 0.00 in0.0 mm 0.00 in/hr0.0 mm/hr 0.00 in0.0 mm
07:15 AM 60.4°F15.8°C 55.9°F13.3°C 85% 3.8 mph SE6.1 kmh SE 6.7 mph10.8 kmh 29.93 in1013.5 mb 0.00 in0.0 mm 0.00 in/hr0.0 mm/hr 0.00 in0.0 mm
07:20 AM 60.6°F15.9°C 56.1°F13.4°C 85% 1.4 mph ESE2.3 kmh ESE 7.6 mph12.2 kmh 29.93 in1013.5 mb 0.00 in0.0 mm 0.00 in/hr0.0 mm/hr 0.00 in0.0 mm
07:25 AM 61.0°F16.1°C 56.5°F13.6°C 85% 2.1 mph SE3.4 kmh SE 7.6 mph12.2 kmh 29.93 in1013.5 mb 0.00 in0.0 mm 0.00 in/hr0.0 mm/hr 0.00 in0.0 mm
07:30 AM 61.2°F16.2°C 56.6°F13.7°C 85% 4.8 mph SE7.7 kmh SE 9.6 mph15.4 kmh 29.93 in1013.5 mb 0.00 in0.0 mm 0.00 in/hr0.0 mm/hr 0.00 in0.0 mm
07:35 AM 61.3°F16.3°C 56.5°F13.6°C 84% 3.0 mph S4.8 kmh S 9.6 mph15.4 kmh 29.93 in1013.5 mb 0.00 in0.0 mm 0.00 in/hr0.0 mm/hr 0.00 in0.0 mm
07:40 AM 61.5°F16.4°C 56.3°F13.5°C 83% 1.4 mph SSE2.3 kmh SSE 7.6 mph12.2 kmh 29.93 in1013.5 mb 0.00 in0.0 mm 0.00 in/hr0.0 mm/hr 0.00 in0.0 mm
07:45 AM 61.5°F16.4°C 56.6°F13.7°C 84% 2.9 mph ESE4.7 kmh ESE 7.6 mph12.2 kmh 29.92 in1013.2 mb 0.00 in0.0 mm 0.00 in/hr0.0 mm/hr 0.00 in0.0 mm
07:50 AM 61.5°F16.4°C 56.3°F13.5°C 83% 2.8 mph SE4.5 kmh SE 6.0 mph9.7 kmh 29.92 in1013.2 mb 0.00 in0.0 mm 0.00 in/hr0.0 mm/hr 0.00 in0.0 mm
07:55 AM 61.7°F16.5°C 56.5°F13.6°C 83% 3.7 mph SE6.0 kmh SE 5.1 mph8.2 kmh 29.92 in1013.2 mb 0.00 in0.0 mm 0.00 in/hr0.0 mm/hr 0.00 in0.0 mm
08:00 AM 62.1°F16.7°C 56.8°F13.8°C 83% 2.8 mph SE4.5 kmh SE 4.9 mph7.9 kmh 29.93 in1013.5 mb 0.00 in0.0 mm 0.00 in/hr0.0 mm/hr 0.00 in0.0 mm
08:05 AM 62.4°F16.9°C 56.8°F13.8°C 82% 3.1 mph SE5.0 kmh SE 5.6 mph9.0 kmh 29.92 in1013.2 mb 0.00 in0.0 mm 0.00 in/hr0.0 mm/hr 0.00 in0.0 mm
08:10 AM 62.8°F17.1°C 57.2°F14.0°C 82% 4.0 mph ESE6.4 kmh ESE 8.9 mph14.3 kmh 29.92 in1013.2 mb 0.00 in0.0 mm 0.00 in/hr0.0 mm/hr 0.00 in0.0 mm
08:15 AM 63.0°F17.2°C 57.0°F13.9°C 81% 2.1 mph S3.4 kmh S 8.9 mph14.3 kmh 29.91 in1012.9 mb 0.00 in0.0 mm 0.00 in/hr0.0 mm/hr 0.00 in0.0 mm
08:20 AM 63.5°F17.5°C 57.4°F14.1°C 81% 3.0 mph ESE4.8 kmh ESE 8.5 mph13.7 kmh 29.91 in1012.9 mb 0.00 in0.0 mm 0.00 in/hr0.0 mm/hr 0.00 in0.0 mm
08:25 AM 63.7°F17.6°C 57.4°F14.1°C 80% 2.1 mph ESE3.4 kmh ESE 7.8 mph12.6 kmh 29.91 in1012.9 mb 0.00 in0.0 mm 0.00 in/hr0.0 mm/hr 0.00 in0.0 mm
08:30 AM 63.7°F17.6°C 57.4°F14.1°C 80% 3.8 mph SE6.1 kmh SE 7.8 mph12.6 kmh 29.91 in1012.9 mb 0.00 in0.0 mm 0.00 in/hr0.0 mm/hr 0.00 in0.0 mm
08:35 AM 63.7°F17.6°C 57.4°F14.1°C 80% 4.8 mph E7.7 kmh E 9.4 mph15.1 kmh 29.91 in1012.9 mb 0.00 in0.0 mm 0.00 in/hr0.0 mm/hr 0.00 in0.0 mm
08:40 AM 63.7°F17.6°C 57.4°F14.1°C 80% 3.0 mph ESE4.8 kmh ESE 9.4 mph15.1 kmh 29.91 in1012.9 mb 0.00 in0.0 mm 0.00 in/hr0.0 mm/hr 0.00 in0.0 mm
08:45 AM 64.0°F17.8°C 57.7°F14.3°C 80% 3.5 mph SW5.6 kmh SW 7.4 mph11.9 kmh 29.91 in1012.9 mb 0.00 in0.0 mm 0.00 in/hr0.0 mm/hr 0.00 in0.0 mm
08:50 AM 64.4°F18.0°C 57.6°F14.2°C 79% 3.5 mph S5.6 kmh S 6.7 mph10.8 kmh 29.91 in1012.9 mb 0.00 in0.0 mm 0.00 in/hr0.0 mm/hr 0.00 in0.0 mm
08:55 AM 64.2°F17.9°C 57.6°F14.2°C 79% 1.3 mph S2.1 kmh S 6.0 mph9.7 kmh 29.90 in1012.5 mb 0.00 in0.0 mm 0.00 in/hr0.0 mm/hr 0.00 in0.0 mm
09:00 AM 64.2°F17.9°C 57.6°F14.2°C 79% 2.2 mph SSW3.5 kmh SSW 4.7 mph7.6 kmh 29.90 in1012.5 mb 0.00 in0.0 mm 0.00 in/hr0.0 mm/hr 0.00 in0.0 mm
09:05 AM 64.6°F18.1°C 57.7°F14.3°C 79% 1.9 mph SSW3.1 kmh SSW 4.7 mph7.6 kmh 29.90 in1012.5 mb 0.00 in0.0 mm 0.00 in/hr0.0 mm/hr 0.00 in0.0 mm
09:10 AM 64.6°F18.1°C 57.9°F14.4°C 79% 1.8 mph SSW2.9 kmh SSW 4.5 mph7.2 kmh 29.90 in1012.5 mb 0.00 in0.0 mm 0.00 in/hr0.0 mm/hr 0.00 in0.0 mm
09:15 AM 64.6°F18.1°C 58.1°F14.5°C 79% 1.9 mph SE3.1 kmh SE 4.5 mph7.2 kmh 29.90 in1012.5 mb 0.00 in0.0 mm 0.00 in/hr0.0 mm/hr 0.00 in0.0 mm
09:20 AM 64.9°F18.3°C 58.3°F14.6°C 79% 2.6 mph SE4.2 kmh SE 5.8 mph9.3 kmh 29.90 in1012.5 mb 0.00 in0.0 mm 0.00 in/hr0.0 mm/hr 0.00 in0.0 mm
09:25 AM 65.1°F18.4°C 58.4°F14.7°C 79% 2.5 mph E4.0 kmh E 5.8 mph9.3 kmh 29.89 in1012.2 mb 0.00 in0.0 mm 0.00 in/hr0.0 mm/hr 0.00 in0.0 mm
09:30 AM 65.3°F18.5°C 58.6°F14.8°C 79% 2.3 mph S3.7 kmh S 4.7 mph7.6 kmh 29.90 in1012.5 mb 0.00 in0.0 mm 0.00 in/hr0.0 mm/hr 0.00 in0.0 mm
09:35 AM 65.3°F18.5°C 58.6°F14.8°C 79% 2.4 mph S3.9 kmh S 6.7 mph10.8 kmh 29.90 in1012.5 mb 0.00 in0.0 mm 0.00 in/hr0.0 mm/hr 0.00 in0.0 mm
09:40 AM 65.3°F18.5°C 58.6°F14.8°C 79% 2.2 mph SE3.5 kmh SE 6.7 mph10.8 kmh 29.89 in1012.2 mb 0.00 in0.0 mm 0.00 in/hr0.0 mm/hr 0.00 in0.0 mm
09:45 AM 65.3°F18.5°C 58.6°F14.8°C 79% 2.2 mph ESE3.5 kmh ESE 5.1 mph8.2 kmh 29.89 in1012.2 mb 0.00 in0.0 mm 0.00 in/hr0.0 mm/hr 0.00 in0.0 mm
09:50 AM 65.5°F18.6°C 58.8°F14.9°C 79% 2.6 mph ESE4.2 kmh ESE 5.8 mph9.3 kmh 29.89 in1012.2 mb 0.00 in0.0 mm 0.00 in/hr0.0 mm/hr 0.00 in0.0 mm
09:55 AM 65.8°F18.8°C 59.2°F15.1°C 79% 3.5 mph E5.6 kmh E 5.8 mph9.3 kmh 29.89 in1012.2 mb 0.00 in0.0 mm 0.00 in/hr0.0 mm/hr 0.00 in0.0 mm
10:00 AM 66.0°F18.9°C 59.3°F15.2°C 79% 4.9 mph ESE7.9 kmh ESE 8.9 mph14.3 kmh 29.89 in1012.2 mb 0.00 in0.0 mm 0.00 in/hr0.0 mm/hr 0.00 in0.0 mm
10:05 AM 66.4°F19.1°C 58.9°F14.9°C 77% 3.2 mph ESE5.1 kmh ESE 8.9 mph14.3 kmh 29.89 in1012.2 mb 0.00 in0.0 mm 0.00 in/hr0.0 mm/hr 0.00 in0.0 mm
10:10 AM 66.4°F19.1°C 59.3°F15.2°C 78% 3.0 mph SE4.8 kmh SE 10.3 mph16.6 kmh 29.89 in1012.2 mb 0.00 in0.0 mm 0.00 in/hr0.0 mm/hr 0.00 in0.0 mm
10:14 AM 66.7°F19.3°C 59.3°F15.2°C 77% 4.4 mph SE7.1 kmh SE 10.3 mph16.6 kmh 29.89 in1012.2 mb 0.00 in0.0 mm 0.00 in/hr0.0 mm/hr 0.00 in0.0 mm
10:19 AM 66.9°F19.4°C 59.5°F15.3°C 77% 2.0 mph SE3.2 kmh SE 8.1 mph13.0 kmh 29.89 in1012.2 mb 0.00 in0.0 mm 0.00 in/hr0.0 mm/hr 0.00 in0.0 mm
10:24 AM 67.5°F19.7°C 60.4°F15.8°C 78% 2.0 mph SW3.2 kmh SW 4.3 mph6.9 kmh 29.89 in1012.2 mb 0.00 in0.0 mm 0.00 in/hr0.0 mm/hr 0.00 in0.0 mm
10:29 AM 67.8°F19.9°C 60.4°F15.8°C 77% 2.3 mph ESE3.7 kmh ESE 4.5 mph7.2 kmh 29.89 in1012.2 mb 0.00 in0.0 mm 0.00 in/hr0.0 mm/hr 0.00 in0.0 mm
10:34 AM 67.8°F19.9°C 60.0°F15.6°C 76% 4.5 mph ESE7.2 kmh ESE 5.6 mph9.0 kmh 29.89 in1012.2 mb 0.00 in0.0 mm 0.00 in/hr0.0 mm/hr 0.00 in0.0 mm
10:39 AM 68.4°F20.2°C 60.1°F15.6°C 75% 5.2 mph SE8.4 kmh SE 6.9 mph11.1 kmh 29.88 in1011.9 mb 0.00 in0.0 mm 0.00 in/hr0.0 mm/hr 0.00 in0.0 mm
10:44 AM 68.7°F20.4°C 60.8°F16.0°C 76% 2.1 mph SSE3.4 kmh SSE 6.9 mph11.1 kmh 29.88 in1011.9 mb 0.00 in0.0 mm 0.00 in/hr0.0 mm/hr 0.00 in0.0 mm
10:49 AM 69.4°F20.8°C 61.1°F16.2°C 75% 3.3 mph SE5.3 kmh SE 7.4 mph11.9 kmh 29.88 in1011.9 mb 0.00 in0.0 mm 0.00 in/hr0.0 mm/hr 0.00 in0.0 mm
10:54 AM 69.6°F20.9°C 60.9°F16.1°C 74% 2.6 mph S4.2 kmh S 7.4 mph11.9 kmh 29.88 in1011.9 mb 0.00 in0.0 mm 0.00 in/hr0.0 mm/hr 0.00 in0.0 mm
10:59 AM 69.6°F20.9°C 60.5°F15.8°C 73% 4.9 mph SE7.9 kmh SE 11.2 mph18.0 kmh 29.88 in1011.9 mb 0.00 in0.0 mm 0.00 in/hr0.0 mm/hr 0.00 in0.0 mm
11:04 AM 69.6°F20.9°C 60.5°F15.8°C 73% 4.3 mph E6.9 kmh E 11.2 mph18.0 kmh 29.88 in1011.9 mb 0.00 in0.0 mm 0.00 in/hr0.0 mm/hr 0.00 in0.0 mm
11:09 AM 69.3°F20.7°C 60.2°F15.7°C 73% 1.5 mph SSE2.4 kmh SSE 11.2 mph18.0 kmh 29.88 in1011.9 mb 0.00 in0.0 mm 0.00 in/hr0.0 mm/hr 0.00 in0.0 mm
11:14 AM 69.3°F20.7°C 60.6°F15.9°C 74% 3.8 mph SE6.1 kmh SE 7.6 mph12.2 kmh 29.88 in1011.9 mb 0.00 in0.0 mm 0.00 in/hr0.0 mm/hr 0.00 in0.0 mm
11:19 AM 69.1°F20.6°C 60.0°F15.6°C 73% 2.1 mph SE3.4 kmh SE 7.6 mph12.2 kmh 29.87 in1011.5 mb 0.00 in0.0 mm 0.00 in/hr0.0 mm/hr 0.00 in0.0 mm
11:24 AM 69.1°F20.6°C 60.4°F15.8°C 74% 1.6 mph WSW2.6 kmh WSW 5.6 mph9.0 kmh 29.87 in1011.5 mb 0.00 in0.0 mm 0.00 in/hr0.0 mm/hr 0.00 in0.0 mm
11:29 AM 69.1°F20.6°C 60.4°F15.8°C 74% 1.7 mph SE2.7 kmh SE 6.0 mph9.7 kmh 29.87 in1011.5 mb 0.00 in0.0 mm 0.00 in/hr0.0 mm/hr 0.00 in0.0 mm
11:34 AM 68.9°F20.5°C 60.2°F15.7°C 74% 2.9 mph SE4.7 kmh SE 7.4 mph11.9 kmh 29.87 in1011.5 mb 0.00 in0.0 mm 0.00 in/hr0.0 mm/hr 0.00 in0.0 mm
11:39 AM 69.1°F20.6°C 60.6°F15.9°C 75% 1.9 mph SW3.1 kmh SW 7.4 mph11.9 kmh 29.87 in1011.5 mb 0.00 in0.0 mm 0.00 in/hr0.0 mm/hr 0.00 in0.0 mm
11:44 AM 69.4°F20.8°C 60.7°F15.9°C 74% 2.1 mph SSE3.4 kmh SSE 5.4 mph8.7 kmh 29.86 in1011.2 mb 0.00 in0.0 mm 0.00 in/hr0.0 mm/hr 0.00 in0.0 mm
11:49 AM 69.4°F20.8°C 60.7°F15.9°C 74% 2.3 mph ESE3.7 kmh ESE 5.4 mph8.7 kmh 29.86 in1011.2 mb 0.00 in0.0 mm 0.00 in/hr0.0 mm/hr 0.00 in0.0 mm
11:54 AM 69.4°F20.8°C 61.1°F16.2°C 75% 2.5 mph ESE4.0 kmh ESE 5.4 mph8.7 kmh 29.87 in1011.5 mb 0.00 in0.0 mm 0.00 in/hr0.0 mm/hr 0.00 in0.0 mm
11:59 AM 69.4°F20.8°C 60.7°F15.9°C 74% 3.1 mph SE5.0 kmh SE 4.7 mph7.6 kmh 29.86 in1011.2 mb 0.00 in0.0 mm 0.00 in/hr0.0 mm/hr 0.00 in0.0 mm
12:04 PM 69.4°F20.8°C 61.1°F16.2°C 75% 1.8 mph W2.9 kmh W 5.1 mph8.2 kmh 29.86 in1011.2 mb 0.00 in0.0 mm 0.00 in/hr0.0 mm/hr 0.00 in0.0 mm
12:09 PM 69.4°F20.8°C 61.1°F16.2°C 75% 2.8 mph SSE4.5 kmh SSE 5.1 mph8.2 kmh 29.86 in1011.2 mb 0.00 in0.0 mm 0.00 in/hr0.0 mm/hr 0.00 in0.0 mm
12:14 PM 69.6°F20.9°C 61.3°F16.3°C 75% 2.0 mph SE3.2 kmh SE 4.3 mph6.9 kmh 29.87 in1011.5 mb 0.00 in0.0 mm 0.00 in/hr0.0 mm/hr 0.00 in0.0 mm
12:19 PM 69.6°F20.9°C 61.1°F16.2°C 75% 2.9 mph SE4.7 kmh SE 4.7 mph7.6 kmh 29.86 in1011.2 mb 0.00 in0.0 mm 0.00 in/hr0.0 mm/hr 0.00 in0.0 mm
12:24 PM 69.4°F20.8°C 61.5°F16.4°C 76% 2.1 mph SSW3.4 kmh SSW 4.7 mph7.6 kmh 29.86 in1011.2 mb 0.00 in0.0 mm 0.00 in/hr0.0 mm/hr 0.00 in0.0 mm
12:29 PM 69.1°F20.6°C 61.5°F16.4°C 77% 3.3 mph ESE5.3 kmh ESE 7.4 mph11.9 kmh 29.86 in1011.2 mb 0.00 in0.0 mm 0.00 in/hr0.0 mm/hr 0.00 in0.0 mm
12:34 PM 68.7°F20.4°C 61.6°F16.4°C 78% 2.5 mph SE4.0 kmh SE 7.4 mph11.9 kmh 29.86 in1011.2 mb 0.00 in0.0 mm 0.00 in/hr0.0 mm/hr 0.00 in0.0 mm
12:39 PM 68.4°F20.2°C 61.6°F16.4°C 79% 0.8 mph SSE1.3 kmh SSE 5.4 mph8.7 kmh 29.86 in1011.2 mb 0.00 in0.0 mm 0.00 in/hr0.0 mm/hr 0.00 in0.0 mm
12:44 PM 67.8°F19.9°C 61.8°F16.6°C 81% 2.4 mph SE3.9 kmh SE 5.4 mph8.7 kmh 29.86 in1011.2 mb 0.00 in0.0 mm 0.00 in/hr0.0 mm/hr 0.00 in0.0 mm
12:49 PM 67.6°F19.8°C 62.0°F16.7°C 82% 2.0 mph SSE3.2 kmh SSE 3.8 mph6.1 kmh 29.86 in1011.2 mb 0.00 in0.0 mm 0.00 in/hr0.0 mm/hr 0.00 in0.0 mm
12:54 PM 67.5°F19.7°C 62.1°F16.7°C 83% 2.6 mph SE4.2 kmh SE 2.7 mph4.3 kmh 29.86 in1011.2 mb 0.00 in0.0 mm 0.00 in/hr0.0 mm/hr 0.00 in0.0 mm
12:59 PM 67.3°F19.6°C 62.3°F16.8°C 84% Calm Calm 2.7 mph4.3 kmh 29.85 in1010.8 mb 0.00 in0.0 mm 0.00 in/hr0.0 mm/hr 0.00 in0.0 mm
01:04 PM 67.3°F19.6°C 62.3°F16.8°C 84% Calm Calm 0.9 mph1.4 kmh 29.85 in1010.8 mb 0.00 in0.0 mm 0.00 in/hr0.0 mm/hr 0.00 in0.0 mm
01:09 PM 67.3°F19.6°C 62.6°F17.0°C 85% Calm Calm 2.9 mph4.7 kmh 29.85 in1010.8 mb 0.00 in0.0 mm 0.00 in/hr0.0 mm/hr 0.00 in0.0 mm
01:14 PM 67.1°F19.5°C 62.4°F16.9°C 85% Calm Calm 2.9 mph4.7 kmh 29.85 in1010.8 mb 0.00 in0.0 mm 0.00 in/hr0.0 mm/hr 0.00 in0.0 mm
01:19 PM 67.1°F19.5°C 62.7°F17.1°C 86% 1.8 mph SE2.9 kmh SE 3.6 mph5.8 kmh 29.85 in1010.8 mb 0.02 in0.5 mm 0.24 in/hr6.1 mm/hr 0.02 in0.5 mm
01:24 PM 66.9°F19.4°C 62.6°F17.0°C 86% 1.7 mph SE2.7 kmh SE 3.6 mph5.8 kmh 29.85 in1010.8 mb 0.02 in0.5 mm 0.00 in/hr0.0 mm/hr 0.02 in0.5 mm
01:29 PM 66.9°F19.4°C 62.9°F17.2°C 87% Calm Calm 2.2 mph3.5 kmh 29.85 in1010.8 mb 0.02 in0.5 mm 0.00 in/hr0.0 mm/hr 0.02 in0.5 mm
01:34 PM 66.7°F19.3°C 63.0°F17.2°C 88% Calm Calm 2.2 mph3.5 kmh 29.84 in1010.5 mb 0.02 in0.5 mm 0.00 in/hr0.0 mm/hr 0.02 in0.5 mm
01:39 PM 66.6°F19.2°C 62.9°F17.2°C 88% Calm Calm 1.8 mph2.9 kmh 29.84 in1010.5 mb 0.04 in1.0 mm 0.24 in/hr6.1 mm/hr 0.02 in0.5 mm
01:44 PM 66.7°F19.3°C 63.4°F17.4°C 89% Calm Calm 1.8 mph2.9 kmh 29.84 in1010.5 mb 0.04 in1.0 mm 0.00 in/hr0.0 mm/hr 0.04 in1.0 mm
01:49 PM 66.7°F19.3°C 63.7°F17.6°C 90% 1.3 mph ESE2.1 kmh ESE 3.8 mph6.1 kmh 29.83 in1010.2 mb 0.04 in1.0 mm 0.00 in/hr0.0 mm/hr 0.04 in1.0 mm
01:54 PM 67.3°F19.6°C 64.2°F17.9°C 90% 2.2 mph SE3.5 kmh SE 4.0 mph6.4 kmh 29.83 in1010.2 mb 0.04 in1.0 mm 0.00 in/hr0.0 mm/hr 0.04 in1.0 mm
01:59 PM 67.8°F19.9°C 64.4°F18.0°C 89% 1.8 mph E2.9 kmh E 5.4 mph8.7 kmh 29.83 in1010.2 mb 0.04 in1.0 mm 0.00 in/hr0.0 mm/hr 0.04 in1.0 mm
02:04 PM 67.8°F19.9°C 64.4°F18.0°C 89% 3.0 mph ESE4.8 kmh ESE 5.4 mph8.7 kmh 29.83 in1010.2 mb 0.04 in1.0 mm 0.00 in/hr0.0 mm/hr 0.04 in1.0 mm
02:09 PM 68.0°F20.0°C 64.3°F17.9°C 88% 2.9 mph SE4.7 kmh SE 9.2 mph14.8 kmh 29.82 in1009.8 mb 0.04 in1.0 mm 0.00 in/hr0.0 mm/hr 0.04 in1.0 mm
02:14 PM 68.2°F20.1°C 64.1°F17.8°C 87% 2.4 mph SE3.9 kmh SE 9.6 mph15.4 kmh 29.83 in1010.2 mb 0.04 in1.0 mm 0.00 in/hr0.0 mm/hr 0.04 in1.0 mm
02:19 PM 68.4°F20.2°C 64.3°F17.9°C 87% 2.0 mph SE3.2 kmh SE 9.6 mph15.4 kmh 29.82 in1009.8 mb 0.02 in0.5 mm 0.00 in/hr0.0 mm/hr 0.04 in1.0 mm
02:24 PM 68.4°F20.2°C 64.3°F17.9°C 87% 2.3 mph ESE3.7 kmh ESE 4.7 mph7.6 kmh 29.82 in1009.8 mb 0.02 in0.5 mm 0.00 in/hr0.0 mm/hr 0.04 in1.0 mm
02:29 PM 68.4°F20.2°C 64.3°F17.9°C 87% 1.6 mph SE2.6 kmh SE 6.3 mph10.1 kmh 29.82 in1009.8 mb 0.02 in0.5 mm 0.00 in/hr0.0 mm/hr 0.04 in1.0 mm
02:34 PM 68.5°F20.3°C 64.5°F18.1°C 87% 1.7 mph ESE2.7 kmh ESE 6.3 mph10.1 kmh 29.81 in1009.5 mb 0.02 in0.5 mm 0.00 in/hr0.0 mm/hr 0.04 in1.0 mm
02:39 PM 68.7°F20.4°C 64.3°F17.9°C 86% 3.0 mph SE4.8 kmh SE 5.1 mph8.2 kmh 29.81 in1009.5 mb 0.00 in0.0 mm 0.00 in/hr0.0 mm/hr 0.04 in1.0 mm
02:44 PM 68.9°F20.5°C 64.5°F18.1°C 86% 1.2 mph SE1.9 kmh SE 5.1 mph8.2 kmh 29.81 in1009.5 mb 0.00 in0.0 mm 0.00 in/hr0.0 mm/hr 0.04 in1.0 mm
02:49 PM 69.1°F20.6°C 64.7°F18.2°C 86% 1.8 mph SE2.9 kmh SE 2.5 mph4.0 kmh 29.81 in1009.5 mb 0.00 in0.0 mm 0.00 in/hr0.0 mm/hr 0.04 in1.0 mm
02:54 PM 69.3°F20.7°C 64.8°F18.2°C 86% Calm Calm 2.9 mph4.7 kmh 29.80 in1009.1 mb 0.00 in0.0 mm 0.00 in/hr0.0 mm/hr 0.04 in1.0 mm
02:59 PM 69.6°F20.9°C 65.2°F18.4°C 86% 1.9 mph SE3.1 kmh SE 2.9 mph4.7 kmh 29.80 in1009.1 mb 0.00 in0.0 mm 0.00 in/hr0.0 mm/hr 0.04 in1.0 mm
03:04 PM 69.8°F21.0°C 65.4°F18.6°C 86% 1.9 mph SE3.1 kmh SE 4.3 mph6.9 kmh 29.81 in1009.5 mb 0.00 in0.0 mm 0.00 in/hr0.0 mm/hr 0.04 in1.0 mm
03:09 PM 70.0°F21.1°C 64.9°F18.3°C 84% 1.9 mph SSW3.1 kmh SSW 4.5 mph7.2 kmh 29.80 in1009.1 mb 0.00 in0.0 mm 0.00 in/hr0.0 mm/hr 0.04 in1.0 mm
03:14 PM 69.8°F21.0°C 64.7°F18.2°C 84% 0.7 mph SE1.1 kmh SE 4.5 mph7.2 kmh 29.80 in1009.1 mb 0.00 in0.0 mm 0.00 in/hr0.0 mm/hr 0.04 in1.0 mm
03:19 PM 70.0°F21.1°C 64.9°F18.3°C 84% 2.1 mph SSE3.4 kmh SSE 5.1 mph8.2 kmh 29.79 in1008.8 mb 0.00 in0.0 mm 0.00 in/hr0.0 mm/hr 0.04 in1.0 mm
03:24 PM 70.0°F21.1°C 64.9°F18.3°C 84% 2.4 mph SE3.9 kmh SE 5.1 mph8.2 kmh 29.79 in1008.8 mb 0.00 in0.0 mm 0.00 in/hr0.0 mm/hr 0.04 in1.0 mm
03:29 PM 69.8°F21.0°C 64.7°F18.2°C 84% 2.1 mph SSE3.4 kmh SSE 3.6 mph5.8 kmh 29.79 in1008.8 mb 0.00 in0.0 mm 0.00 in/hr0.0 mm/hr 0.04 in1.0 mm
03:34 PM 69.6°F20.9°C 64.5°F18.1°C 84% 2.0 mph SE3.2 kmh SE 3.4 mph5.5 kmh 29.79 in1008.8 mb 0.00 in0.0 mm 0.00 in/hr0.0 mm/hr 0.04 in1.0 mm
03:39 PM 69.6°F20.9°C 64.5°F18.1°C 84% 3.0 mph SSE4.8 kmh SSE 4.5 mph7.2 kmh 29.79 in1008.8 mb 0.00 in0.0 mm 0.00 in/hr0.0 mm/hr 0.04 in1.0 mm
03:44 PM 69.6°F20.9°C 64.2°F17.9°C 83% 1.7 mph SSE2.7 kmh SSE 4.5 mph7.2 kmh 29.79 in1008.8 mb 0.00 in0.0 mm 0.00 in/hr0.0 mm/hr 0.04 in1.0 mm
03:49 PM 69.6°F20.9°C 64.2°F17.9°C 83% 1.9 mph SE3.1 kmh SE 4.5 mph7.2 kmh 29.79 in1008.8 mb 0.00 in0.0 mm 0.00 in/hr0.0 mm/hr 0.04 in1.0 mm
03:54 PM 69.6°F20.9°C 64.2°F17.9°C 83% 1.5 mph SE2.4 kmh SE 4.5 mph7.2 kmh 29.79 in1008.8 mb 0.00 in0.0 mm 0.00 in/hr0.0 mm/hr 0.04 in1.0 mm
03:59 PM 69.6°F20.9°C 63.8°F17.7°C 82% 1.6 mph ESE2.6 kmh ESE 2.9 mph4.7 kmh 29.78 in1008.5 mb 0.00 in0.0 mm 0.00 in/hr0.0 mm/hr 0.04 in1.0 mm
04:04 PM 69.6°F20.9°C 63.8°F17.7°C 82% 2.5 mph ESE4.0 kmh ESE 2.5 mph4.0 kmh 29.78 in1008.5 mb 0.00 in0.0 mm 0.00 in/hr0.0 mm/hr 0.04 in1.0 mm
04:09 PM 69.6°F20.9°C 63.8°F17.7°C 82% 1.8 mph SSE2.9 kmh SSE 3.4 mph5.5 kmh 29.78 in1008.5 mb 0.00 in0.0 mm 0.00 in/hr0.0 mm/hr 0.04 in1.0 mm
04:14 PM 69.6°F20.9°C 63.8°F17.7°C 82% Calm Calm 3.4 mph5.5 kmh 29.78 in1008.5 mb 0.00 in0.0 mm 0.00 in/hr0.0 mm/hr 0.04 in1.0 mm
04:19 PM 69.6°F20.9°C 63.8°F17.7°C 82% 2.4 mph SE3.9 kmh SE 4.0 mph6.4 kmh 29.78 in1008.5 mb 0.00 in0.0 mm 0.00 in/hr0.0 mm/hr 0.04 in1.0 mm
04:24 PM 69.6°F20.9°C 63.8°F17.7°C 82% Calm Calm 4.0 mph6.4 kmh 29.78 in1008.5 mb 0.00 in0.0 mm 0.00 in/hr0.0 mm/hr 0.04 in1.0 mm
04:29 PM 69.6°F20.9°C 63.8°F17.7°C 82% 1.8 mph SE2.9 kmh SE 2.2 mph3.5 kmh 29.78 in1008.5 mb 0.00 in0.0 mm 0.00 in/hr0.0 mm/hr 0.04 in1.0 mm
04:34 PM 69.6°F20.9°C 63.8°F17.7°C 82% Calm Calm 2.2 mph3.5 kmh 29.78 in1008.5 mb 0.00 in0.0 mm 0.00 in/hr0.0 mm/hr 0.04 in1.0 mm
04:39 PM 69.6°F20.9°C 63.8°F17.7°C 82% 2.8 mph SE4.5 kmh SE 3.1 mph5.0 kmh 29.78 in1008.5 mb 0.00 in0.0 mm 0.00 in/hr0.0 mm/hr 0.04 in1.0 mm
04:44 PM 69.6°F20.9°C 63.8°F17.7°C 82% Calm Calm 3.1 mph5.0 kmh 29.77 in1008.1 mb 0.00 in0.0 mm 0.00 in/hr0.0 mm/hr 0.04 in1.0 mm
04:49 PM 69.6°F20.9°C 63.8°F17.7°C 82% 2.2 mph SE3.5 kmh SE 2.2 mph3.5 kmh 29.77 in1008.1 mb 0.00 in0.0 mm 0.00 in/hr0.0 mm/hr 0.04 in1.0 mm
04:54 PM 69.6°F20.9°C 63.8°F17.7°C 82% Calm Calm 2.2 mph3.5 kmh 29.77 in1008.1 mb 0.00 in0.0 mm 0.00 in/hr0.0 mm/hr 0.04 in1.0 mm
04:59 PM 69.6°F20.9°C 63.8°F17.7°C 82% 1.6 mph SE2.6 kmh SE 2.0 mph3.2 kmh 29.77 in1008.1 mb 0.00 in0.0 mm 0.00 in/hr0.0 mm/hr 0.04 in1.0 mm
05:04 PM 69.6°F20.9°C 63.8°F17.7°C 82% Calm Calm 2.0 mph3.2 kmh 29.77 in1008.1 mb 0.00 in0.0 mm 0.00 in/hr0.0 mm/hr 0.04 in1.0 mm
05:09 PM 69.6°F20.9°C 63.8°F17.7°C 82% Calm Calm 2.0 mph3.2 kmh 29.77 in1008.1 mb 0.00 in0.0 mm 0.00 in/hr0.0 mm/hr 0.04 in1.0 mm
05:14 PM 69.4°F20.8°C 63.7°F17.6°C 82% 1.6 mph ESE2.6 kmh ESE 2.0 mph3.2 kmh 29.77 in1008.1 mb 0.00 in0.0 mm 0.00 in/hr0.0 mm/hr 0.04 in1.0 mm
05:19 PM 69.4°F20.8°C 63.7°F17.6°C 82% Calm Calm 1.6 mph2.6 kmh 29.77 in1008.1 mb 0.00 in0.0 mm 0.00 in/hr0.0 mm/hr 0.04 in1.0 mm
05:24 PM 69.3°F20.7°C 63.8°F17.7°C 83% Calm Calm 0.7 mph1.1 kmh 29.76 in1007.8 mb 0.00 in0.0 mm 0.00 in/hr0.0 mm/hr 0.04 in1.0 mm
05:29 PM 69.3°F20.7°C 63.8°F17.7°C 83% Calm Calm 0.7 mph1.1 kmh 29.77 in1008.1 mb 0.00 in0.0 mm 0.00 in/hr0.0 mm/hr 0.04 in1.0 mm
05:34 PM 69.3°F20.7°C 63.8°F17.7°C 83% Calm Calm -- 29.76 in1007.8 mb 0.00 in0.0 mm 0.00 in/hr0.0 mm/hr 0.04 in1.0 mm
05:39 PM 68.9°F20.5°C 63.5°F17.5°C 83% 1.7 mph SE2.7 kmh SE 2.5 mph4.0 kmh 29.77 in1008.1 mb 0.00 in0.0 mm 0.00 in/hr0.0 mm/hr 0.04 in1.0 mm
05:44 PM 69.1°F20.6°C 64.0°F17.8°C 84% 1.8 mph E2.9 kmh E 2.5 mph4.0 kmh 29.77 in1008.1 mb 0.00 in0.0 mm 0.00 in/hr0.0 mm/hr 0.04 in1.0 mm
05:49 PM 69.1°F20.6°C 63.7°F17.6°C 83% Calm Calm 2.2 mph3.5 kmh 29.76 in1007.8 mb 0.00 in0.0 mm 0.00 in/hr0.0 mm/hr 0.04 in1.0 mm
05:54 PM 69.4°F20.8°C 63.7°F17.6°C 82% Calm Calm 3.1 mph5.0 kmh 29.76 in1007.8 mb 0.00 in0.0 mm 0.00 in/hr0.0 mm/hr 0.04 in1.0 mm
05:59 PM 69.6°F20.9°C 63.8°F17.7°C 82% 2.4 mph SE3.9 kmh SE 3.1 mph5.0 kmh 29.76 in1007.8 mb 0.00 in0.0 mm 0.00 in/hr0.0 mm/hr 0.04 in1.0 mm
06:04 PM 69.8°F21.0°C 63.3°F17.4°C 80% 2.0 mph SE3.2 kmh SE 3.1 mph5.0 kmh 29.77 in1008.1 mb 0.00 in0.0 mm 0.00 in/hr0.0 mm/hr 0.04 in1.0 mm
06:09 PM 70.2°F21.2°C 63.7°F17.6°C 80% 2.5 mph SE4.0 kmh SE 3.1 mph5.0 kmh 29.77 in1008.1 mb 0.00 in0.0 mm 0.00 in/hr0.0 mm/hr 0.04 in1.0 mm
06:14 PM 70.3°F21.3°C 63.3°F17.4°C 79% 3.0 mph SE4.8 kmh SE 3.6 mph5.8 kmh 29.77 in1008.1 mb 0.00 in0.0 mm 0.00 in/hr0.0 mm/hr 0.04 in1.0 mm
06:19 PM 70.3°F21.3°C 63.1°F17.3°C 78% 3.0 mph SE4.8 kmh SE 4.9 mph7.9 kmh 29.77 in1008.1 mb 0.00 in0.0 mm 0.00 in/hr0.0 mm/hr 0.04 in1.0 mm
06:24 PM 70.5°F21.4°C 63.3°F17.4°C 78% Calm Calm 4.9 mph7.9 kmh 29.77 in1008.1 mb 0.00 in0.0 mm 0.00 in/hr0.0 mm/hr 0.04 in1.0 mm
06:29 PM 70.5°F21.4°C 62.9°F17.2°C 77% 4.0 mph SE6.4 kmh SE 8.5 mph13.7 kmh 29.77 in1008.1 mb 0.00 in0.0 mm 0.00 in/hr0.0 mm/hr 0.04 in1.0 mm
06:34 PM 70.7°F21.5°C 63.1°F17.3°C 77% 3.7 mph E6.0 kmh E 8.5 mph13.7 kmh 29.76 in1007.8 mb 0.00 in0.0 mm 0.00 in/hr0.0 mm/hr 0.04 in1.0 mm
06:39 PM 70.7°F21.5°C 63.1°F17.3°C 77% 2.7 mph ESE4.3 kmh ESE 6.3 mph10.1 kmh 29.77 in1008.1 mb 0.00 in0.0 mm 0.00 in/hr0.0 mm/hr 0.04 in1.0 mm
06:44 PM 70.7°F21.5°C 63.1°F17.3°C 77% 3.2 mph SE5.1 kmh SE 6.0 mph9.7 kmh 29.76 in1007.8 mb 0.00 in0.0 mm 0.00 in/hr0.0 mm/hr 0.04 in1.0 mm
06:49 PM 70.7°F21.5°C 62.7°F17.1°C 76% 2.5 mph SE4.0 kmh SE 6.0 mph9.7 kmh 29.77 in1008.1 mb 0.00 in0.0 mm 0.00 in/hr0.0 mm/hr 0.04 in1.0 mm
06:54 PM 70.7°F21.5°C 62.7°F17.1°C 76% 2.5 mph SE4.0 kmh SE 3.8 mph6.1 kmh 29.77 in1008.1 mb 0.00 in0.0 mm 0.00 in/hr0.0 mm/hr 0.04 in1.0 mm
06:59 PM 70.7°F21.5°C 62.7°F17.1°C 76% 2.6 mph SSE4.2 kmh SSE 3.6 mph5.8 kmh 29.77 in1008.1 mb 0.00 in0.0 mm 0.00 in/hr0.0 mm/hr 0.04 in1.0 mm
07:04 PM 70.7°F21.5°C 62.7°F17.1°C 76% 3.0 mph SE4.8 kmh SE 4.0 mph6.4 kmh 29.77 in1008.1 mb 0.00 in0.0 mm 0.00 in/hr0.0 mm/hr 0.04 in1.0 mm
07:09 PM 70.7°F21.5°C 62.7°F17.1°C 76% 3.5 mph SE5.6 kmh SE 5.8 mph9.3 kmh 29.77 in1008.1 mb 0.00 in0.0 mm 0.00 in/hr0.0 mm/hr 0.04 in1.0 mm
07:14 PM 70.7°F21.5°C 62.7°F17.1°C 76% 0.7 mph NE1.1 kmh NE 5.8 mph9.3 kmh 29.77 in1008.1 mb 0.00 in0.0 mm 0.00 in/hr0.0 mm/hr 0.04 in1.0 mm
07:19 PM 70.5°F21.4°C 62.5°F16.9°C 76% 3.0 mph SSE4.8 kmh SSE 3.6 mph5.8 kmh 29.76 in1007.8 mb 0.00 in0.0 mm 0.00 in/hr0.0 mm/hr 0.04 in1.0 mm
07:24 PM 70.5°F21.4°C 62.5°F16.9°C 76% 2.1 mph SE3.4 kmh SE 4.3 mph6.9 kmh 29.76 in1007.8 mb 0.00 in0.0 mm 0.00 in/hr0.0 mm/hr 0.04 in1.0 mm
07:29 PM 70.5°F21.4°C 62.2°F16.8°C 75% 5.0 mph SE8.0 kmh SE 6.5 mph10.5 kmh 29.77 in1008.1 mb 0.00 in0.0 mm 0.00 in/hr0.0 mm/hr 0.04 in1.0 mm
07:34 PM 70.5°F21.4°C 62.5°F16.9°C 76% 3.7 mph ESE6.0 kmh ESE 6.5 mph10.5 kmh 29.77 in1008.1 mb 0.00 in0.0 mm 0.00 in/hr0.0 mm/hr 0.04 in1.0 mm
07:39 PM 70.5°F21.4°C 62.2°F16.8°C 75% 1.6 mph ESE2.6 kmh ESE 5.4 mph8.7 kmh 29.77 in1008.1 mb 0.00 in0.0 mm 0.00 in/hr0.0 mm/hr 0.04 in1.0 mm
07:44 PM 70.5°F21.4°C 62.2°F16.8°C 75% 3.2 mph SE5.1 kmh SE 5.1 mph8.2 kmh 29.77 in1008.1 mb 0.00 in0.0 mm 0.00 in/hr0.0 mm/hr 0.04 in1.0 mm
07:49 PM 70.5°F21.4°C 62.5°F16.9°C 76% Calm Calm 5.1 mph8.2 kmh 29.77 in1008.1 mb 0.00 in0.0 mm 0.00 in/hr0.0 mm/hr 0.04 in1.0 mm
07:54 PM 70.5°F21.4°C 62.2°F16.8°C 75% 3.0 mph SE4.8 kmh SE 6.9 mph11.1 kmh 29.77 in1008.1 mb 0.00 in0.0 mm 0.00 in/hr0.0 mm/hr 0.04 in1.0 mm
07:59 PM 70.5°F21.4°C 62.2°F16.8°C 75% 2.1 mph SE3.4 kmh SE 6.9 mph11.1 kmh 29.77 in1008.1 mb 0.00 in0.0 mm 0.00 in/hr0.0 mm/hr 0.04 in1.0 mm
08:04 PM 70.5°F21.4°C 62.2°F16.8°C 75% 2.5 mph SE4.0 kmh SE 4.0 mph6.4 kmh 29.77 in1008.1 mb 0.00 in0.0 mm 0.00 in/hr0.0 mm/hr 0.04 in1.0 mm
08:09 PM 70.3°F21.3°C 62.0°F16.7°C 75% 2.8 mph SE4.5 kmh SE 4.0 mph6.4 kmh 29.77 in1008.1 mb 0.00 in0.0 mm 0.00 in/hr0.0 mm/hr 0.04 in1.0 mm
08:14 PM 70.5°F21.4°C 62.5°F16.9°C 76% 1.7 mph SE2.7 kmh SE 5.4 mph8.7 kmh 29.77 in1008.1 mb 0.00 in0.0 mm 0.00 in/hr0.0 mm/hr 0.04 in1.0 mm
08:19 PM 70.3°F21.3°C 62.3°F16.8°C 76% 3.0 mph ESE4.8 kmh ESE 6.7 mph10.8 kmh 29.78 in1008.5 mb 0.00 in0.0 mm 0.00 in/hr0.0 mm/hr 0.04 in1.0 mm
08:24 PM 70.3°F21.3°C 62.3°F16.8°C 76% 2.0 mph SW3.2 kmh SW 6.7 mph10.8 kmh 29.77 in1008.1 mb 0.00 in0.0 mm 0.00 in/hr0.0 mm/hr 0.04 in1.0 mm
08:29 PM 70.3°F21.3°C 62.3°F16.8°C 76% Calm Calm 4.7 mph7.6 kmh 29.78 in1008.5 mb 0.00 in0.0 mm 0.00 in/hr0.0 mm/hr 0.04 in1.0 mm
08:34 PM 70.3°F21.3°C 62.0°F16.7°C 75% 2.8 mph SE4.5 kmh SE 4.0 mph6.4 kmh 29.78 in1008.5 mb 0.00 in0.0 mm 0.00 in/hr0.0 mm/hr 0.04 in1.0 mm
08:39 PM 70.3°F21.3°C 62.3°F16.8°C 76% 1.6 mph SE2.6 kmh SE 4.0 mph6.4 kmh 29.78 in1008.5 mb 0.00 in0.0 mm 0.00 in/hr0.0 mm/hr 0.04 in1.0 mm
08:44 PM 70.3°F21.3°C 62.3°F16.8°C 76% 0.9 mph SSE1.4 kmh SSE 2.2 mph3.5 kmh 29.78 in1008.5 mb 0.00 in0.0 mm 0.00 in/hr0.0 mm/hr 0.04 in1.0 mm
08:49 PM 70.3°F21.3°C 62.3°F16.8°C 76% 1.8 mph SSE2.9 kmh SSE 5.4 mph8.7 kmh 29.78 in1008.5 mb 0.00 in0.0 mm 0.00 in/hr0.0 mm/hr 0.04 in1.0 mm
08:54 PM 70.3°F21.3°C 62.0°F16.7°C 75% 2.2 mph SE3.5 kmh SE 5.4 mph8.7 kmh 29.78 in1008.5 mb 0.00 in0.0 mm 0.00 in/hr0.0 mm/hr 0.04 in1.0 mm
08:59 PM 70.3°F21.3°C 62.0°F16.7°C 75% 2.1 mph SE3.4 kmh SE 6.0 mph9.7 kmh 29.78 in1008.5 mb 0.00 in0.0 mm 0.00 in/hr0.0 mm/hr 0.04 in1.0 mm
09:04 PM 70.3°F21.3°C 62.0°F16.7°C 75% 1.4 mph SSE2.3 kmh SSE 6.0 mph9.7 kmh 29.78 in1008.5 mb 0.00 in0.0 mm 0.00 in/hr0.0 mm/hr 0.04 in1.0 mm
09:09 PM 70.3°F21.3°C 62.0°F16.7°C 75% Calm Calm 4.3 mph6.9 kmh 29.78 in1008.5 mb 0.00 in0.0 mm 0.00 in/hr0.0 mm/hr 0.04 in1.0 mm
09:14 PM 70.3°F21.3°C 62.0°F16.7°C 76% 2.3 mph SE3.7 kmh SE 3.4 mph5.5 kmh 29.78 in1008.5 mb 0.00 in0.0 mm 0.00 in/hr0.0 mm/hr 0.04 in1.0 mm
09:19 PM 70.0°F21.1°C 62.4°F16.9°C 77% 4.1 mph ESE6.6 kmh ESE 5.1 mph8.2 kmh 29.79 in1008.8 mb 0.00 in0.0 mm 0.00 in/hr0.0 mm/hr 0.04 in1.0 mm
09:24 PM 69.6°F20.9°C 62.4°F16.9°C 78% 1.6 mph SE2.6 kmh SE 5.1 mph8.2 kmh 29.79 in1008.8 mb 0.00 in0.0 mm 0.00 in/hr0.0 mm/hr 0.04 in1.0 mm
09:29 PM 68.9°F20.5°C 62.5°F16.9°C 80% 1.6 mph SE2.6 kmh SE 2.0 mph3.2 kmh 29.79 in1008.8 mb 0.00 in0.0 mm 0.00 in/hr0.0 mm/hr 0.04 in1.0 mm
09:34 PM 68.2°F20.1°C 62.8°F17.1°C 83% Calm Calm 2.7 mph4.3 kmh 29.78 in1008.5 mb 0.00 in0.0 mm 0.00 in/hr0.0 mm/hr 0.04 in1.0 mm
09:39 PM 67.6°F19.8°C 62.6°F17.0°C 84% 1.8 mph SE2.9 kmh SE 2.7 mph4.3 kmh 29.78 in1008.5 mb 0.00 in0.0 mm 0.00 in/hr0.0 mm/hr 0.04 in1.0 mm
09:44 PM 67.3°F19.6°C 62.6°F17.0°C 85% Calm Calm 2.0 mph3.2 kmh 29.78 in1008.5 mb 0.00 in0.0 mm 0.00 in/hr0.0 mm/hr 0.04 in1.0 mm
09:49 PM 66.9°F19.4°C 62.6°F17.0°C 86% Calm Calm 1.8 mph2.9 kmh 29.78 in1008.5 mb 0.00 in0.0 mm 0.00 in/hr0.0 mm/hr 0.04 in1.0 mm
09:54 PM 66.7°F19.3°C 62.7°F17.1°C 87% Calm Calm -- 29.78 in1008.5 mb 0.00 in0.0 mm 0.00 in/hr0.0 mm/hr 0.04 in1.0 mm
09:59 PM 66.4°F19.1°C 62.7°F17.1°C 88% Calm Calm -- 29.78 in1008.5 mb 0.00 in0.0 mm 0.00 in/hr0.0 mm/hr 0.04 in1.0 mm
10:04 PM 66.2°F19.0°C 62.5°F16.9°C 88% Calm Calm -- 29.78 in1008.5 mb 0.00 in0.0 mm 0.00 in/hr0.0 mm/hr 0.04 in1.0 mm
10:09 PM 66.0°F18.9°C 62.6°F17.0°C 89% Calm Calm -- 29.78 in1008.5 mb 0.00 in0.0 mm 0.00 in/hr0.0 mm/hr 0.04 in1.0 mm
10:14 PM 66.0°F18.9°C 62.6°F17.0°C 89% Calm Calm -- 29.78 in1008.5 mb 0.00 in0.0 mm 0.00 in/hr0.0 mm/hr 0.04 in1.0 mm
10:19 PM 66.0°F18.9°C 62.6°F17.0°C 89% Calm Calm -- 29.78 in1008.5 mb 0.00 in0.0 mm 0.00 in/hr0.0 mm/hr 0.04 in1.0 mm
10:24 PM 66.0°F18.9°C 63.0°F17.2°C 90% Calm Calm -- 29.78 in1008.5 mb 0.00 in0.0 mm 0.00 in/hr0.0 mm/hr 0.04 in1.0 mm
10:29 PM 66.0°F18.9°C 63.0°F17.2°C 90% Calm Calm 1.6 mph2.6 kmh 29.78 in1008.5 mb 0.00 in0.0 mm 0.00 in/hr0.0 mm/hr 0.04 in1.0 mm
10:34 PM 66.2°F19.0°C 63.1°F17.3°C 90% Calm Calm 1.6 mph2.6 kmh 29.78 in1008.5 mb 0.00 in0.0 mm 0.00 in/hr0.0 mm/hr 0.04 in1.0 mm
10:39 PM 66.2°F19.0°C 62.8°F17.1°C 89% 1.8 mph SSE2.9 kmh SSE 3.1 mph5.0 kmh 29.78 in1008.5 mb 0.00 in0.0 mm 0.00 in/hr0.0 mm/hr 0.04 in1.0 mm
10:44 PM 66.2°F19.0°C 62.8°F17.1°C 89% Calm Calm 3.1 mph5.0 kmh 29.78 in1008.5 mb 0.00 in0.0 mm 0.00 in/hr0.0 mm/hr 0.04 in1.0 mm
10:49 PM 66.4°F19.1°C 63.0°F17.2°C 89% 3.3 mph ESE5.3 kmh ESE 4.0 mph6.4 kmh 29.78 in1008.5 mb 0.00 in0.0 mm 0.00 in/hr0.0 mm/hr 0.04 in1.0 mm
10:54 PM 66.4°F19.1°C 62.7°F17.1°C 88% 1.8 mph SE2.9 kmh SE 4.0 mph6.4 kmh 29.78 in1008.5 mb 0.00 in0.0 mm 0.00 in/hr0.0 mm/hr 0.04 in1.0 mm
10:59 PM 66.4°F19.1°C 62.7°F17.1°C 88% Calm Calm 3.8 mph6.1 kmh 29.78 in1008.5 mb 0.00 in0.0 mm 0.00 in/hr0.0 mm/hr 0.04 in1.0 mm
11:04 PM 66.4°F19.1°C 62.7°F17.1°C 88% 1.8 mph SSE2.9 kmh SSE 3.8 mph6.1 kmh 29.78 in1008.5 mb 0.00 in0.0 mm 0.00 in/hr0.0 mm/hr 0.04 in1.0 mm
11:09 PM 66.4°F19.1°C 62.7°F17.1°C 88% Calm Calm 4.3 mph6.9 kmh 29.78 in1008.5 mb 0.00 in0.0 mm 0.00 in/hr0.0 mm/hr 0.04 in1.0 mm
11:14 PM 66.4°F19.1°C 62.7°F17.1°C 88% Calm Calm 4.3 mph6.9 kmh 29.77 in1008.1 mb 0.00 in0.0 mm 0.00 in/hr0.0 mm/hr 0.04 in1.0 mm
11:19 PM 66.2°F19.0°C 62.2°F16.8°C 87% Calm Calm -- 29.77 in1008.1 mb 0.00 in0.0 mm 0.00 in/hr0.0 mm/hr 0.04 in1.0 mm
11:24 PM 66.2°F19.0°C 62.5°F16.9°C 88% 2.4 mph SE3.9 kmh SE 2.9 mph4.7 kmh 29.77 in1008.1 mb 0.00 in0.0 mm 0.00 in/hr0.0 mm/hr 0.04 in1.0 mm
11:29 PM 66.0°F18.9°C 62.3°F16.8°C 88% Calm Calm 2.9 mph4.7 kmh 29.77 in1008.1 mb 0.00 in0.0 mm 0.00 in/hr0.0 mm/hr 0.04 in1.0 mm
11:35 PM 66.0°F18.9°C 62.3°F16.8°C 88% Calm Calm -- 29.77 in1008.1 mb 0.00 in0.0 mm 0.00 in/hr0.0 mm/hr 0.04 in1.0 mm
11:39 PM 66.0°F18.9°C 62.3°F16.8°C 88% Calm Calm -- 29.77 in1008.1 mb 0.00 in0.0 mm 0.00 in/hr0.0 mm/hr 0.04 in1.0 mm
11:45 PM 66.0°F18.9°C 62.3°F16.8°C 88% Calm Calm -- 29.78 in1008.5 mb 0.00 in0.0 mm 0.00 in/hr0.0 mm/hr 0.04 in1.0 mm
11:49 PM 66.0°F18.9°C 62.6°F17.0°C 89% 1.7 mph SE2.7 kmh SE 2.0 mph3.2 kmh 29.77 in1008.1 mb 0.00 in0.0 mm 0.00 in/hr0.0 mm/hr 0.04 in1.0 mm
11:54 PM 66.0°F18.9°C 62.6°F17.0°C 89% 1.4 mph SE2.3 kmh SE 2.0 mph3.2 kmh 29.77 in1008.1 mb 0.00 in0.0 mm 0.00 in/hr0.0 mm/hr 0.04 in1.0 mm